Terminal Aerodrome Forecast
Issued by NWS

Home | Current Version | Previous Version | Text Only | Print | Product List | Glossary On
Versions: 1 2 3 4 5 6 7 8 9 10 11 12
000
FTUS46 KMFR 290547
TAFLMT
TAF
KLMT 290547Z 2906/3006 VRB03KT P6SM SCT200
     FM292100 19005KT P6SM SCT090 SCT120 BKN180
     FM300000 29009KT P6SM VCSH SCT080 BKN150 BKN200=

USA.gov is the U.S. government's official web portal to all federal, state and local government web resources and services.